Last 7 Days

Suisun Valley (SSV)

Hourly Data | America/Los_Angeles
as of 6/18/19 9:43 PM PDT
Date & Time Temp (°F) RH (%) Dew Pt (°F) Wind Spd (mph) Wind Dir (°) Wind Gust (mph) Wind Gst Dir (°) Latest Rain (In) Solar Rad Tot Hr (Cal/cm2) Daily Rain (In) Daily Min Temp (°F) Daily Max Temp (°F)
6/18/19 - 1700 89.8 36 59.7 8.8 WSW | 247 15.0 WSW | 253 0.00 79 0.00 57.9 92.6
6/18/19 - 1600 91.8 37 61.5 7.6 WSW | 246 13.2 SW | 221 0.00 94 0.00 57.9 92.6
6/18/19 - 1500 90.3 39 61.9 7.7 WSW | 247 13.6 WSW | 249 0.00 105 0.00 57.9 91.8
6/18/19 - 1400 87.2 41 60.9 8.2 WSW | 243 16.7 W | 262 0.00 110 0.00 57.9 88.6
6/18/19 - 1300 85.2 42 59.7 8.1 WSW | 239 14.5 W | 263 0.00 109 0.00 57.9 85.9
6/18/19 - 1200 83.6 43 59.0 7.1 SW | 236 11.8 WSW | 241 0.00 102 0.00 57.9 84.4
6/18/19 - 1100 82.8 44 58.6 4.7 SW | 226 9.8 SW | 218 0.00 88 0.00 57.9 83.4
6/18/19 - 1000 78.6 51 58.8 3.0 SSW | 198 6.4 S | 187 0.00 70 0.00 57.9 81.3
6/18/19 - 0900 71.2 68 59.8 0.7 E | 79 3.4 E | 80 0.00 49 0.00 57.9 74.5
6/18/19 - 0800 65.6 78 58.4 0.0 NNE | 33 3.1 E | 89 0.00 28 0.00 57.9 68.1
6/18/19 - 0700 59.8 91 57.1 0.0 NW | 306 1.6 WNW | 282 0.00 9 0.00 57.9 63.6
6/18/19 - 0600 58.3 90 55.3 0.0 N | 0 0.0 NNW | 329 0.00 0 0.00 57.9 63.6
6/18/19 - 0500 59.4 87 55.6 0.0 N | 0 0.0 NNE | 21 0.00 0 0.00 58.5 63.6
6/18/19 - 0400 60.9 84 55.9 0.0 N | 0 0.0 ENE | 64 0.00 0 0.00 60.1 63.6
6/18/19 - 0300 61.7 82 56.1 0.4 ENE | 64 3.3 ENE | 63 0.00 0 0.00 61.6 63.6
6/18/19 - 0200 62.0 81 56.3 0.0 SSW | 196 2.1 SSW | 193 0.00 0 0.00 61.7 63.6
6/18/19 - 0100 63.2 77 56.1 0.0 NW | 325 1.7 NNW | 331 0.00 0 0.00 62.6 63.6
6/18/19 - 0000 64.2 74 55.9 0.1 NNW | 331 2.2 NW | 316 0.00 0 0.00 55.9 87.0
6/17/19 - 2300 66.4 69 56.1 0.0 ESE | 120 1.1 ESE | 104 0.00 0 0.00 55.9 87.0
6/17/19 - 2200 71.4 58 55.8 0.4 WSW | 257 4.3 SW | 230 0.00 0 0.00 55.9 87.0
6/17/19 - 2100 77.5 46 55.3 2.3 WSW | 249 6.9 SW | 232 0.00 1 0.00 55.9 87.0
6/17/19 - 2000 81.8 42 56.5 5.0 WSW | 253 12.5 SW | 214 0.00 16 0.00 55.9 87.0
6/17/19 - 1900 84.1 41 57.8 6.2 W | 262 15.3 SW | 229 0.00 36 0.00 55.9 87.0
6/17/19 - 1800 84.1 42 58.3 10.5 WSW | 249 18.8 W | 281 0.00 58 0.00 55.9 87.0
6/17/19 - 1700 84.6 43 59.6 9.8 WSW | 249 17.3 SW | 229 0.00 77 0.00 55.9 87.0
6/17/19 - 1600 84.5 44 60.2 9.8 WSW | 247 18.5 WSW | 238 0.00 93 0.00 55.9 87.0
6/17/19 - 1500 86.0 42 60.5 9.0 WSW | 247 14.5 W | 262 0.00 104 0.00 55.9 87.0
6/17/19 - 1400 84.1 45 60.4 8.1 WSW | 241 14.6 WSW | 255 0.00 109 0.00 55.9 86.0
6/17/19 - 1300 82.4 47 60.3 6.8 SW | 234 13.6 SW | 227 0.00 108 0.00 55.9 83.3
6/17/19 - 1200 80.4 49 59.6 5.0 SSW | 212 9.1 SSW | 198 0.00 100 0.00 55.9 82.3
6/17/19 - 1100 76.6 54 58.9 4.5 SSW | 200 9.6 SSW | 206 0.00 87 0.00 55.9 78.2
6/17/19 - 1000 73.1 59 57.9 2.3 SW | 215 6.3 SW | 230 0.00 69 0.00 55.9 75.2
6/17/19 - 0900 67.0 69 56.5 0.9 ENE | 76 4.8 E | 80 0.00 48 0.00 55.9 70.6
6/17/19 - 0800 61.2 79 54.6 0.1 N | 2 2.4 ENE | 69 0.00 27 0.00 55.9 63.2
6/17/19 - 0700 57.2 88 53.6 0.0 N | 0 0.0 WNW | 302 0.00 9 0.00 55.9 59.5
6/17/19 - 0600 56.8 87 53.0 0.1 W | 262 2.7 WNW | 303 0.00 0 0.00 56.0 59.5
6/17/19 - 0500 57.2 86 53.1 1.1 W | 260 9.3 WSW | 255 0.00 0 0.00 56.4 59.5
6/17/19 - 0400 57.3 85 52.9 0.9 WSW | 256 9.6 WSW | 245 0.00 0 0.00 56.4 59.5
6/17/19 - 0300 57.2 86 53.0 1.3 SW | 233 6.4 WSW | 246 0.00 0 0.00 56.6 59.5
6/17/19 - 0200 57.8 83 52.8 3.7 WSW | 241 9.1 SW | 214 0.00 0 0.00 57.2 59.5
6/17/19 - 0100 58.5 81 52.8 5.0 WSW | 242 11.0 S | 179 0.00 0 0.00 57.9 59.5
6/17/19 - 0000 60.0 76 52.6 5.3 WSW | 242 11.5 SW | 233 0.00 0 0.00 48.1 81.6
6/16/19 - 2300 61.9 71 52.3 6.0 SW | 217 11.8 SSW | 211 0.00 0 0.00 48.1 81.6
6/16/19 - 2200 63.9 67 52.9 4.9 SW | 218 10.0 SSW | 205 0.00 0 0.00 48.1 81.6
6/16/19 - 2100 67.1 62 53.8 4.6 SW | 224 10.1 SW | 219 0.00 1 0.00 48.1 81.6
6/16/19 - 2000 71.1 56 54.7 7.4 WSW | 240 14.8 SW | 236 0.00 15 0.00 48.1 81.6
6/16/19 - 1900 74.5 54 56.8 9.2 WSW | 243 16.8 W | 266 0.00 37 0.00 48.1 81.6
6/16/19 - 1800 76.5 52 57.7 8.8 WSW | 243 14.5 SSW | 207 0.00 42 0.00 48.1 81.6
6/16/19 - 1700 79.1 48 57.8 9.1 WSW | 244 16.7 SW | 231 0.00 72 0.00 48.1 81.6
6/16/19 - 1600 80.7 44 57.0 8.7 WSW | 246 15.2 W | 261 0.00 93 0.00 48.1 81.6
6/16/19 - 1500 79.8 46 57.2 7.8 WSW | 243 12.5 WSW | 240 0.00 105 0.00 48.1 81.6
6/16/19 - 1400 77.2 50 56.8 7.7 WSW | 244 13.0 WSW | 248 0.00 110 0.00 48.1 78.6
6/16/19 - 1300 72.7 56 56.3 7.4 SW | 223 14.0 WSW | 241 0.00 109 0.00 48.1 75.5
6/16/19 - 1200 67.4 64 55.0 9.1 WSW | 237 16.0 W | 271 0.00 102 0.00 48.1 70.9
6/16/19 - 1100 65.4 68 54.6 7.4 SW | 229 14.5 WSW | 258 0.00 88 0.00 48.1 66.6
6/16/19 - 1000 61.9 74 53.5 7.6 WSW | 243 13.3 SW | 232 0.00 71 0.00 48.1 63.9
6/16/19 - 0900 60.8 77 53.5 3.7 WSW | 238 9.0 WSW | 243 0.00 50 0.00 48.1 61.6
6/16/19 - 0800 56.8 87 52.8 0.9 W | 262 5.4 WSW | 245 0.00 29 0.00 48.1 59.4
6/16/19 - 0700 50.1 94 48.5 0.0 NNW | 346 1.1 N | 351 0.00 9 0.00 48.1 56.0
6/16/19 - 0600 49.1 93 47.1 0.0 N | 0 0.0 NNW | 334 0.00 0 0.00 48.1 56.0
6/16/19 - 0500 51.1 93 49.1 0.7 W | 265 7.6 W | 280 0.00 0 0.00 50.0 56.0
6/16/19 - 0400 51.7 92 49.4 0.1 WNW | 301 3.6 NW | 313 0.00 0 0.00 50.8 56.0
6/16/19 - 0300 53.5 90 50.6 1.8 W | 266 7.1 W | 267 0.00 0 0.00 52.4 56.0
6/16/19 - 0200 54.5 88 51.0 4.2 WSW | 252 10.1 WSW | 252 0.00 0 0.00 54.1 56.0
6/16/19 - 0100 55.2 86 51.2 4.9 WSW | 249 12.1 WSW | 239 0.00 0 0.00 54.7 56.0
6/16/19 - 0000 56.6 83 51.4 5.2 WSW | 244 11.5 WSW | 255 0.00 0 0.00 51.8 73.0
6/15/19 - 2300 57.7 80 51.4 6.4 SW | 234 12.1 WSW | 254 0.00 0 0.00 51.8 73.0
6/15/19 - 2200 59.0 77 51.6 9.0 SW | 236 15.7 WSW | 240 0.00 0 0.00 51.8 73.0
6/15/19 - 2100 61.1 73 52.3 9.4 WSW | 237 15.8 WSW | 242 0.00 1 0.00 51.8 73.0
6/15/19 - 2000 65.7 64 53.3 9.0 WSW | 239 16.8 SW | 231 0.00 15 0.00 51.8 73.0
6/15/19 - 1900 68.9 60 54.6 9.2 WSW | 239 17.2 W | 275 0.00 37 0.00 51.8 73.0
6/15/19 - 1800 70.9 56 54.6 11.2 WSW | 247 19.2 SW | 220 0.00 64 0.00 51.8 73.0
6/15/19 - 1700 71.4 56 55.0 11.1 WSW | 244 18.0 WSW | 240 0.00 69 0.00 51.8 73.0
6/15/19 - 1600 71.8 56 55.4 11.0 WSW | 245 17.7 WSW | 256 0.00 93 0.00 51.8 73.0
6/15/19 - 1500 71.5 57 55.3 11.8 WSW | 242 18.0 SW | 233 0.00 101 0.00 51.8 72.7
6/15/19 - 1400 71.3 57 55.4 10.0 WSW | 241 16.5 W | 268 0.00 110 0.00 51.8 72.1
6/15/19 - 1300 68.0 61 54.2 10.1 WSW | 240 18.8 SSW | 201 0.00 103 0.00 51.8 69.8
6/15/19 - 1200 65.2 65 53.4 10.5 WSW | 248 17.8 W | 262 0.00 105 0.00 51.8 67.3
6/15/19 - 1100 61.6 72 52.4 11.5 WSW | 242 19.0 WSW | 256 0.00 90 0.00 51.8 62.9
6/15/19 - 1000 58.9 77 51.8 11.1 WSW | 246 18.5 WSW | 256 0.00 72 0.00 51.8 59.9
6/15/19 - 0900 56.5 82 51.1 10.0 WSW | 245 17.0 WSW | 250 0.00 52 0.00 51.8 58.1
6/15/19 - 0800 55.6 84 50.9 4.9 WSW | 250 16.0 SW | 236 0.00 30 0.00 51.8 57.1
6/15/19 - 0700 52.7 90 49.7 2.3 WSW | 257 12.5 WSW | 238 0.00 9 0.00 51.8 57.1
6/15/19 - 0600 53.0 90 50.1 6.2 WSW | 245 13.6 SW | 229 0.00 0 0.00 51.9 57.1
6/15/19 - 0500 53.3 90 50.4 7.9 WSW | 239 14.3 WSW | 241 0.00 0 0.00 53.1 57.1
6/15/19 - 0400 53.9 88 50.4 7.8 WSW | 241 14.0 WSW | 258 0.00 0 0.00 53.5 57.1
6/15/19 - 0300 54.3 86 50.3 9.1 WSW | 243 16.7 SW | 215 0.00 0 0.00 54.1 57.1
6/15/19 - 0200 55.0 84 50.3 9.8 WSW | 237 18.8 W | 259 0.00 0 0.00 54.6 57.1
6/15/19 - 0100 56.2 83 51.0 7.7 SW | 228 15.8 SW | 227 0.00 0 0.00 55.2 57.1
6/15/19 - 0000 56.8 81 51.2 8.5 SW | 227 15.7 W | 262 0.00 0 0.00 54.6 82.0
6/14/19 - 2300 58.2 79 51.7 7.8 SW | 217 15.5 SW | 235 0.00 0 0.00 54.6 82.0
6/14/19 - 2200 60.2 74 51.8 8.3 SW | 226 17.8 SSW | 211 0.00 0 0.00 54.6 82.0
6/14/19 - 2100 64.6 66 52.9 8.8 SW | 229 15.0 SW | 236 0.00 1 0.00 54.6 82.0
6/14/19 - 2000 69.4 61 55.4 7.7 SW | 221 14.8 WSW | 254 0.00 16 0.00 54.6 82.0
6/14/19 - 1900 73.5 56 56.9 9.6 WSW | 239 16.5 WSW | 249 0.00 37 0.00 54.6 82.0
6/14/19 - 1800 78.0 51 58.3 9.2 WSW | 240 16.7 SW | 232 0.00 58 0.00 54.6 82.0
6/14/19 - 1700 79.6 49 58.8 9.6 WSW | 246 15.0 WSW | 248 0.00 78 0.00 54.6 82.0
6/14/19 - 1600 80.2 48 58.5 8.9 WSW | 246 16.0 W | 263 0.00 94 0.00 54.6 82.0
6/14/19 - 1500 80.0 47 58.2 8.6 WSW | 242 14.6 SW | 230 0.00 105 0.00 54.6 81.0
6/14/19 - 1400 77.8 50 57.6 8.5 WSW | 244 13.8 W | 267 0.00 110 0.00 54.6 79.0
6/14/19 - 1300 77.3 51 57.6 6.5 SW | 232 12.5 WSW | 246 0.00 109 0.00 54.6 78.0
6/14/19 - 1200 73.3 56 56.4 5.0 SW | 229 9.3 WSW | 255 0.00 102 0.00 54.6 76.4
6/14/19 - 1100 65.4 67 54.2 8.8 WSW | 247 17.5 WSW | 243 0.00 88 0.00 54.6 69.2
6/14/19 - 1000 61.0 75 53.1 11.0 WSW | 247 17.2 W | 270 0.00 71 0.00 54.6 63.0
6/14/19 - 0900 59.0 80 52.7 9.8 WSW | 248 16.3 W | 259 0.00 50 0.00 54.6 61.5
6/14/19 - 0800 58.7 80 52.6 5.4 WSW | 254 15.8 W | 262 0.00 29 0.00 54.6 61.5
6/14/19 - 0700 56.1 86 52.0 5.2 WSW | 258 14.8 WSW | 253 0.00 9 0.00 54.6 61.5
6/14/19 - 0600 54.9 88 51.5 7.3 WSW | 255 16.2 WSW | 250 0.00 0 0.00 54.6 61.5
6/14/19 - 0500 55.0 89 51.8 9.4 WSW | 248 16.3 WSW | 238 0.00 0 0.00 54.8 61.5
6/14/19 - 0400 55.2 88 51.8 10.0 WSW | 248 16.3 WSW | 249 0.00 0 0.00 55.0 61.5
6/14/19 - 0300 56.5 84 51.8 8.2 WSW | 252 14.5 WSW | 243 0.00 0 0.00 55.7 61.5
6/14/19 - 0200 57.3 83 52.1 9.1 WSW | 248 16.8 W | 262 0.00 0 0.00 57.0 61.5
6/14/19 - 0100 59.4 77 52.2 9.2 WSW | 249 17.2 WSW | 252 0.00 0 0.00 57.4 61.5
6/14/19 - 0000 61.6 71 52.3 8.3 SW | 236 14.6 WSW | 237 0.00 0 0.00 58.5 80.8
6/13/19 - 2300 65.6 63 52.4 5.1 SW | 228 10.8 SW | 229 0.00 0 0.00 58.5 80.8
6/13/19 - 2200 66.9 60 52.8 6.5 SW | 229 12.3 WSW | 257 0.00 0 0.00 58.5 80.8
6/13/19 - 2100 69.6 59 54.6 8.3 SW | 231 13.0 SW | 222 0.00 1 0.00 58.5 80.8
6/13/19 - 2000 75.1 51 55.9 6.8 SW | 220 11.5 SW | 221 0.00 12 0.00 58.5 80.8
6/13/19 - 1900 79.4 47 57.2 4.7 WSW | 256 14.3 W | 262 0.00 38 0.00 58.5 80.8
6/13/19 - 1800 79.3 49 58.5 10.8 WSW | 239 17.8 WSW | 240 0.00 53 0.00 58.5 80.8
6/13/19 - 1700 80.1 49 59.2 11.6 WSW | 240 17.7 WSW | 248 0.00 80 0.00 58.5 80.8
6/13/19 - 1600 79.7 49 58.9 11.1 WSW | 254 17.7 W | 263 0.00 88 0.00 58.5 80.8
6/13/19 - 1500 78.8 50 58.6 11.7 W | 266 19.2 WSW | 256 0.00 99 0.00 58.5 79.9
6/13/19 - 1400 78.7 49 58.1 10.4 WSW | 249 17.0 WSW | 237 0.00 107 0.00 58.5 79.4
6/13/19 - 1300 75.8 52 56.9 11.3 WSW | 252 18.0 WSW | 247 0.00 110 0.00 58.5 78.1
6/13/19 - 1200 70.8 60 56.3 12.9 WSW | 253 20.7 W | 273 0.00 103 0.00 58.5 73.3
6/13/19 - 1100 67.4 67 55.9 11.5 WSW | 248 16.8 WSW | 251 0.00 90 0.00 58.5 70.1
6/13/19 - 1000 64.6 72 55.3 11.0 WSW | 247 16.8 WNW | 282 0.00 72 0.00 58.5 69.2
6/13/19 - 0900 64.1 73 55.4 8.0 WSW | 249 15.5 WSW | 257 0.00 50 0.00 58.5 69.2
6/13/19 - 0800 63.1 77 55.7 4.4 WSW | 244 10.6 WSW | 243 0.00 28 0.00 58.5 69.2
6/13/19 - 0700 59.7 84 54.9 8.3 WSW | 252 15.3 WSW | 253 0.00 9 0.00 58.5 69.2
6/13/19 - 0600 60.5 80 54.4 7.7 WSW | 257 16.5 WNW | 286 0.00 0 0.00 58.5 69.2
6/13/19 - 0500 60.2 80 53.9 1.6 WSW | 252 8.8 W | 280 0.00 0 0.00 58.5 69.2
6/13/19 - 0400 59.9 78 52.9 0.1 N | 9 2.4 ENE | 60 0.00 0 0.00 59.2 69.2
6/13/19 - 0300 63.3 69 53.1 0.0 NW | 323 1.4 WNW | 288 0.00 0 0.00 61.1 69.2
6/13/19 - 0200 67.0 60 52.4 3.0 W | 273 9.5 W | 266 0.00 0 0.00 63.7 69.2
6/13/19 - 0100 66.0 68 55.2 0.2 NW | 315 4.8 W | 280 0.00 0 0.00 63.9 68.9
6/13/19 - 0000 68.8 60 54.1 1.1 WNW | 285 7.4 W | 268 0.00 0 0.00 66.9 98.5
6/12/19 - 2300 70.5 54 53.2 0.7 WSW | 251 6.1 N | 353 0.00 0 0.00 69.1 98.5
6/12/19 - 2200 74.9 46 52.8 1.5 S | 173 5.3 W | 269 0.00 0 0.00 69.6 98.5
6/12/19 - 2100 78.6 41 53.1 5.7 W | 259 12.3 WSW | 246 0.00 1 0.00 69.6 98.5
6/12/19 - 2000 81.9 40 55.5 9.1 WSW | 248 18.2 W | 263 0.00 15 0.00 69.6 98.5
6/12/19 - 1900 85.0 36 55.1 12.1 WSW | 256 19.2 WSW | 250 0.00 35 0.00 69.6 98.5
6/12/19 - 1800 91.3 34 58.9 8.4 WSW | 247 14.6 W | 274 0.00 58 0.00 69.6 98.5
6/12/19 - 1700 95.7 29 58.5 8.9 WSW | 253 14.5 W | 268 0.00 79 0.00 69.6 98.5
6/12/19 - 1600 96.7 23 52.9 8.2 WSW | 247 14.3 WSW | 237 0.00 95 0.00 69.6 98.5
6/12/19 - 1500 97.8 20 49.9 6.3 WSW | 243 11.5 SW | 224 0.00 106 0.00 69.6 98.5
6/12/19 - 1400 96.8 24 54.2 5.5 S | 187 10.6 SE | 128 0.00 112 0.00 69.6 97.9
6/12/19 - 1300 95.4 27 56.4 4.6 SE | 133 9.0 SE | 125 0.00 108 0.00 69.6 96.3
6/12/19 - 1200 93.3 28 55.0 3.8 SE | 129 7.6 ESE | 120 0.00 104 0.00 69.6 94.2
6/12/19 - 1100 90.6 30 54.5 2.5 SE | 136 6.1 ESE | 112 0.00 91 0.00 69.6 91.7
6/12/19 - 1000 86.4 35 55.6 3.2 ESE | 120 6.1 ESE | 109 0.00 71 0.00 69.6 89.6
6/12/19 - 0900 79.3 45 55.8 1.2 WNW | 297 5.9 S | 180 0.00 42 0.00 69.6 82.8
6/12/19 - 0800 73.4 55 56.2 0.3 NNW | 329 3.1 NE | 43 0.00 13 0.00 69.6 74.9
6/12/19 - 0700 70.4 57 54.4 0.5 NNW | 338 3.3 NNW | 331 0.00 4 0.00 69.6 74.9
6/12/19 - 0600 71.1 54 53.5 0.1 WNW | 286 2.2 W | 276 0.00 0 0.00 70.0 74.9
6/12/19 - 0500 71.1 55 54.1 0.2 NW | 323 1.6 WNW | 289 0.00 0 0.00 70.3 74.9
6/12/19 - 0400 72.2 51 53.3 0.4 NNW | 339 2.7 NNW | 346 0.00 0 0.00 70.6 74.9
6/12/19 - 0300 73.1 50 53.2 0.5 S | 177 3.1 SW | 216 0.00 0 0.00 70.6 74.9
6/12/19 - 0200 73.4 48 52.4 0.3 SW | 227 2.4 NW | 318 0.00 0 0.00 70.6 74.9
6/12/19 - 0100 71.7 49 51.7 0.2 NW | 307 2.7 NW | 308 0.00 0 0.00 70.6 73.5
6/12/19 - 0000 75.6 41 50.0 0.5 NW | 310 3.1 WNW | 289 0.00 0 0.00 62.4 104.1
6/11/19 - 2300 80.6 32 47.8 2.1 NW | 311 4.9 NW | 308 0.00 0 0.00 62.4 104.1
6/11/19 - 2200 81.2 32 48.9 1.0 NNW | 340 4.6 N | 0 0.00 0 0.00 62.4 104.1
Max 97.8 94 61.9 12.9 - 20.7 - 0.00 112 0.00 70.6 104.1
Avg 69.5 63 54.7 5.8 - 11.5 - 0.00 40 - - -
Min 49.1 20 47.1 0.0 - 0.0 - 0.00 0 0.00 48.1 56.0
Total - - - - - - - 0.00 - - - -
Tip: Bookmark this page for easy future reference